createdAt,value
2023-02-23T00:01:12.337Z,96.20
2023-02-23T00:03:36.847Z,96.20
2023-02-23T00:06:04.577Z,96.20
2023-02-23T00:08:29.144Z,96.20
2023-02-23T00:10:58.581Z,96.10
2023-02-23T00:13:23.334Z,96.20
2023-02-23T00:15:47.739Z,96.20
2023-02-23T00:18:14.434Z,96.30
2023-02-23T00:20:44.569Z,96.40
2023-02-23T00:23:10.655Z,96.30
2023-02-23T00:25:36.578Z,96.50
2023-02-23T00:28:01.024Z,96.40
2023-02-23T00:30:26.494Z,96.70
2023-02-23T00:32:53.597Z,96.70
2023-02-23T00:35:19.108Z,96.80
2023-02-23T00:37:44.329Z,96.90
2023-02-23T00:40:14.706Z,97.00
2023-02-23T00:42:39.198Z,97.00
2023-02-23T00:45:11.125Z,97.00
2023-02-23T00:47:37.376Z,97.10
2023-02-23T00:50:02.233Z,97.10
2023-02-23T00:52:29.068Z,97.00
2023-02-23T00:54:53.477Z,97.00
2023-02-23T00:57:19.304Z,97.10
2023-02-23T00:59:43.605Z,97.10
2023-02-23T01:02:08.122Z,97.10
2023-02-23T01:04:32.527Z,97.00
2023-02-23T01:06:56.979Z,97.00
2023-02-23T01:09:28.296Z,97.00
2023-02-23T01:11:52.737Z,96.90
2023-02-23T01:14:18.465Z,97.00
2023-02-23T01:17:14.091Z,96.90
2023-02-23T01:19:40.573Z,96.90
2023-02-23T01:22:05.194Z,96.80
2023-02-23T01:24:30.060Z,96.80
2023-02-23T01:26:54.964Z,96.80
2023-02-23T01:29:20.862Z,97.00
2023-02-23T01:31:48.069Z,97.10
2023-02-23T01:34:15.851Z,97.20
2023-02-23T01:36:44.097Z,97.40
2023-02-23T01:39:12.099Z,97.50
2023-02-23T01:41:39.304Z,97.60
2023-02-23T01:44:05.200Z,97.80
2023-02-23T01:46:33.244Z,98.10
2023-02-23T01:48:58.901Z,98.30
2023-02-23T01:51:25.149Z,98.60
2023-02-23T01:53:54.645Z,98.70
2023-02-23T01:56:24.486Z,98.90
2023-02-23T01:58:52.871Z,99.00
2023-02-23T02:01:17.948Z,99.20
2023-02-23T02:03:51.055Z,99.20
2023-02-23T02:06:19.378Z,99.20
2023-02-23T02:08:48.601Z,99.10
2023-02-23T02:11:26.178Z,99.20
2023-02-23T02:13:51.045Z,99.30
2023-02-23T02:16:50.162Z,99.30
2023-02-23T02:20:05.790Z,99.30
2023-02-23T02:23:00.817Z,99.40
2023-02-23T02:25:55.158Z,99.50
2023-02-23T02:28:51.557Z,99.70
2023-02-23T02:31:49.834Z,99.90
2023-02-23T02:34:43.138Z,99.90
2023-02-23T02:37:28.988Z,99.90
2023-02-23T02:40:15.511Z,99.90
2023-02-23T02:42:51.162Z,99.90
2023-02-23T02:45:23.851Z,99.90
2023-02-23T02:47:57.617Z,99.90
2023-02-23T02:50:31.541Z,99.90
2023-02-23T02:53:04.171Z,99.90
2023-02-23T02:55:34.416Z,99.90
2023-02-23T02:58:02.304Z,99.90
2023-02-23T03:00:49.636Z,99.90
2023-02-23T03:03:47.249Z,99.90
2023-02-23T03:06:29.573Z,99.90
2023-02-23T03:09:18.669Z,99.90
2023-02-23T03:12:10.378Z,99.90
2023-02-23T03:14:58.668Z,99.90
2023-02-23T03:17:51.043Z,99.90
2023-02-23T03:20:41.712Z,99.90
2023-02-23T03:23:31.805Z,99.90
2023-02-23T03:26:20.750Z,99.90
2023-02-23T03:29:14.484Z,99.90
2023-02-23T03:32:02.166Z,99.90
2023-02-23T03:34:52.327Z,99.90
2023-02-23T03:37:41.907Z,99.90
2023-02-23T03:40:30.981Z,99.90
2023-02-23T03:43:18.650Z,99.90
2023-02-23T03:46:02.523Z,99.90
2023-02-23T03:48:45.914Z,99.90
2023-02-23T03:51:31.486Z,99.90
2023-02-23T03:54:18.327Z,99.90
2023-02-23T03:57:04.254Z,99.90
2023-02-23T03:59:53.139Z,99.90
2023-02-23T04:02:38.079Z,99.90
2023-02-23T04:05:23.953Z,99.90
2023-02-23T04:08:07.832Z,99.90
2023-02-23T04:10:53.912Z,99.90
2023-02-23T04:13:21.055Z,99.90
2023-02-23T04:15:49.778Z,99.90
2023-02-23T04:18:16.752Z,99.90
2023-02-23T04:20:41.282Z,99.90
2023-02-23T04:23:07.319Z,99.90
2023-02-23T04:25:32.427Z,99.90
2023-02-23T04:27:56.897Z,99.90
2023-02-23T04:30:25.381Z,99.90
2023-02-23T04:32:51.691Z,99.90
2023-02-23T04:35:16.273Z,99.90
2023-02-23T04:37:40.657Z,99.90
2023-02-23T04:40:05.447Z,99.90
2023-02-23T04:42:30.069Z,99.90
2023-02-23T04:44:54.696Z,99.90
2023-02-23T04:47:21.105Z,99.90
2023-02-23T04:49:46.961Z,99.90
2023-02-23T04:52:13.627Z,99.90
2023-02-23T04:54:40.068Z,99.90
2023-02-23T04:57:04.953Z,99.90
2023-02-23T04:59:29.465Z,99.90
2023-02-23T05:01:53.837Z,99.90
2023-02-23T05:04:18.204Z,99.90
2023-02-23T05:06:44.442Z,99.90
2023-02-23T05:09:09.145Z,99.90
2023-02-23T05:11:34.032Z,99.90
2023-02-23T05:13:58.406Z,99.90
2023-02-23T05:16:24.045Z,99.90
2023-02-23T05:18:50.848Z,99.90
2023-02-23T05:21:15.317Z,99.90
2023-02-23T05:23:41.286Z,99.90
2023-02-23T05:26:08.085Z,99.90
2023-02-23T05:28:32.659Z,99.90
2023-02-23T05:30:57.252Z,99.90
2023-02-23T05:33:21.908Z,99.90
2023-02-23T05:35:46.525Z,99.90
2023-02-23T05:38:10.906Z,99.90
2023-02-23T05:40:37.861Z,99.90
2023-02-23T05:43:02.476Z,99.90
2023-02-23T05:45:26.986Z,99.90
2023-02-23T05:47:52.078Z,99.90
2023-02-23T05:50:16.646Z,99.90
2023-02-23T05:52:42.047Z,99.90
2023-02-23T05:55:07.424Z,99.90
2023-02-23T05:57:33.492Z,99.90
2023-02-23T05:59:57.945Z,99.90
2023-02-23T06:02:22.729Z,99.90
2023-02-23T06:04:47.304Z,99.90
2023-02-23T06:07:11.681Z,99.90
2023-02-23T06:09:36.309Z,99.90
2023-02-23T06:12:01.028Z,99.90
2023-02-23T06:14:29.120Z,99.90
2023-02-23T06:16:53.682Z,99.90
2023-02-23T06:19:18.096Z,99.90
2023-02-23T06:21:42.439Z,99.90
2023-02-23T06:24:07.468Z,99.90
2023-02-23T06:26:32.418Z,99.90
2023-02-23T06:28:57.232Z,99.90
2023-02-23T06:31:23.187Z,99.90
2023-02-23T06:33:48.460Z,99.90
2023-02-23T06:36:13.149Z,99.90
2023-02-23T06:38:38.182Z,99.90
2023-02-23T06:41:07.754Z,99.90
2023-02-23T06:43:36.844Z,99.90
2023-02-23T06:46:06.394Z,99.90
2023-02-23T06:48:32.476Z,99.90
2023-02-23T06:50:58.957Z,99.90
2023-02-23T06:53:25.143Z,99.90
2023-02-23T06:55:50.224Z,99.90
2023-02-23T06:58:14.807Z,99.90
2023-02-23T07:00:43.114Z,99.90
2023-02-23T07:03:07.736Z,99.90
2023-02-23T07:05:34.702Z,99.90
2023-02-23T07:07:59.113Z,99.90
2023-02-23T07:10:23.765Z,99.90
2023-02-23T07:12:48.279Z,99.90
2023-02-23T07:15:13.129Z,99.90
2023-02-23T07:17:37.813Z,99.90
2023-02-23T07:20:02.289Z,99.90
2023-02-23T07:22:30.572Z,99.90
2023-02-23T07:24:55.106Z,99.90
2023-02-23T07:27:19.706Z,99.90
2023-02-23T07:29:44.175Z,99.90
2023-02-23T07:32:09.075Z,99.90
2023-02-23T07:34:34.527Z,99.90
2023-02-23T07:36:59.218Z,99.90
2023-02-23T07:39:25.689Z,99.90
2023-02-23T07:41:50.439Z,99.90
2023-02-23T07:44:17.780Z,99.90
2023-02-23T07:46:42.305Z,99.90
2023-02-23T07:49:06.731Z,99.90
2023-02-23T07:51:31.255Z,99.90
2023-02-23T07:53:55.666Z,99.90
2023-02-23T07:56:24.205Z,99.90
2023-02-23T07:58:48.634Z,99.90
2023-02-23T08:01:15.178Z,99.90
2023-02-23T08:03:40.058Z,99.90
2023-02-23T08:06:04.892Z,99.90
2023-02-23T08:08:30.567Z,99.90
2023-02-23T08:11:01.849Z,99.90
2023-02-23T08:13:27.813Z,99.90
2023-02-23T08:15:52.247Z,99.90
2023-02-23T08:18:17.802Z,99.90
2023-02-23T08:20:42.280Z,99.90
2023-02-23T08:23:07.395Z,99.90
2023-02-23T08:25:31.876Z,99.90
2023-02-23T08:27:56.389Z,99.90
2023-02-23T08:30:23.419Z,99.90
2023-02-23T08:32:48.129Z,99.90
2023-02-23T08:35:12.933Z,99.90
2023-02-23T08:37:37.601Z,99.90
2023-02-23T08:40:02.017Z,99.90
2023-02-23T08:42:27.763Z,99.90
2023-02-23T08:44:52.275Z,99.90
2023-02-23T08:47:23.534Z,99.90
2023-02-23T08:49:48.005Z,99.90
2023-02-23T08:52:12.444Z,99.90
2023-02-23T08:54:36.915Z,99.90
2023-02-23T08:57:01.514Z,99.90
2023-02-23T08:59:27.177Z,99.90
2023-02-23T09:01:51.730Z,99.90
2023-02-23T09:04:18.637Z,99.90
2023-02-23T09:06:43.166Z,99.90
2023-02-23T09:09:08.053Z,99.90
2023-02-23T09:11:32.441Z,99.90
2023-02-23T09:13:57.114Z,99.90
2023-02-23T09:16:21.936Z,99.90
2023-02-23T09:18:46.746Z,99.90
2023-02-23T09:21:19.534Z,99.90
2023-02-23T09:23:44.288Z,99.90
2023-02-23T09:26:09.920Z,99.90
2023-02-23T09:28:35.237Z,99.90
2023-02-23T09:30:59.733Z,99.90
2023-02-23T09:33:24.299Z,99.90
2023-02-23T09:35:49.183Z,99.90
2023-02-23T09:38:15.195Z,99.90
2023-02-23T09:40:48.767Z,99.90
2023-02-23T09:43:16.799Z,99.90
2023-02-23T09:45:46.576Z,99.90
2023-02-23T09:48:16.651Z,99.90
2023-02-23T09:50:42.437Z,99.90
2023-02-23T09:53:14.102Z,99.90
2023-02-23T09:55:43.183Z,99.90
2023-02-23T09:58:18.370Z,99.90
2023-02-23T10:00:48.827Z,99.90
2023-02-23T10:03:28.368Z,99.90
2023-02-23T10:05:57.092Z,99.90
2023-02-23T10:08:32.186Z,99.90
2023-02-23T10:11:05.161Z,99.90
2023-02-23T10:13:40.144Z,99.90
2023-02-23T10:16:14.188Z,99.90
2023-02-23T10:18:47.309Z,99.90
2023-02-23T10:21:18.834Z,99.90
2023-02-23T10:23:49.789Z,99.90
2023-02-23T10:26:19.384Z,99.90
2023-02-23T10:28:45.401Z,99.90
2023-02-23T10:31:26.197Z,99.90
2023-02-23T10:33:53.214Z,99.90
2023-02-23T10:36:20.466Z,99.90
2023-02-23T10:38:45.634Z,99.90
2023-02-23T10:41:14.655Z,99.90
2023-02-23T10:43:40.896Z,99.90
2023-02-23T10:46:07.981Z,99.90
2023-02-23T10:48:37.275Z,99.90
2023-02-23T10:51:04.493Z,99.90
2023-02-23T10:53:35.822Z,99.90
2023-02-23T10:56:07.063Z,99.90
2023-02-23T10:58:32.520Z,99.90
2023-02-23T11:01:00.567Z,99.90
2023-02-23T11:03:28.725Z,99.90
2023-02-23T11:05:53.907Z,99.90
2023-02-23T11:08:25.739Z,99.90
2023-02-23T11:11:02.965Z,99.90
2023-02-23T11:13:29.801Z,99.90
2023-02-23T11:16:04.606Z,99.90
2023-02-23T11:18:29.757Z,99.90
2023-02-23T11:20:54.733Z,99.90
2023-02-23T11:46:08.717Z,99.90
2023-02-23T11:49:35.367Z,99.90
2023-02-23T11:50:21.868Z,99.90
2023-02-23T12:59:27.118Z,99.40
2023-02-23T13:05:30.747Z,99.30
2023-02-23T13:08:16.765Z,98.90
2023-02-23T13:10:49.956Z,98.60
2023-02-23T13:13:27.066Z,98.40
2023-02-23T13:16:05.593Z,98.50
2023-02-23T13:18:42.415Z,98.50
2023-02-23T13:21:14.379Z,98.40
2023-02-23T13:23:44.657Z,98.30
2023-02-23T13:26:18.239Z,97.90
2023-02-23T13:28:53.856Z,97.90
2023-02-23T13:31:25.236Z,97.50
2023-02-23T13:33:50.533Z,97.60
2023-02-23T13:36:15.263Z,97.50
2023-02-23T13:38:48.332Z,97.50
2023-02-23T13:41:22.108Z,97.50
2023-02-23T13:43:54.892Z,97.40
2023-02-23T13:46:33.443Z,97.50
2023-02-23T13:49:02.351Z,97.60
2023-02-23T13:51:36.044Z,97.70
2023-02-23T13:54:03.160Z,97.60
2023-02-23T13:56:30.098Z,97.70
2023-02-23T13:58:57.953Z,97.60
2023-02-23T14:01:30.853Z,97.80
2023-02-23T14:03:57.858Z,98.00
2023-02-23T14:06:25.140Z,98.00
2023-02-23T14:08:57.030Z,98.10
2023-02-23T14:11:45.189Z,98.10
2023-02-23T14:14:17.087Z,98.20
2023-02-23T14:16:43.642Z,98.30
2023-02-23T14:19:32.132Z,98.50
2023-02-23T14:22:02.428Z,98.50
2023-02-23T14:24:28.067Z,99.00
2023-02-23T14:27:38.400Z,99.20
2023-02-23T14:30:16.023Z,99.30
2023-02-23T14:32:43.678Z,99.50
2023-02-23T14:35:44.205Z,99.70
2023-02-23T14:38:29.981Z,99.90
2023-02-23T14:40:58.387Z,99.90
2023-02-23T14:43:51.324Z,99.90
2023-02-23T14:46:21.278Z,99.90
2023-02-23T14:48:56.895Z,99.90
2023-02-23T14:51:27.599Z,99.90
2023-02-23T14:53:53.664Z,99.90
2023-02-23T14:56:26.172Z,99.90
2023-02-23T14:58:56.688Z,99.90
2023-02-23T15:01:34.587Z,99.90
2023-02-23T15:04:13.175Z,99.90
2023-02-23T15:06:42.435Z,99.90
2023-02-23T15:09:08.242Z,99.90
2023-02-23T15:11:33.034Z,99.90
2023-02-23T15:13:57.487Z,99.90
2023-02-23T15:16:36.010Z,99.90
2023-02-23T15:19:01.741Z,99.90
2023-02-23T15:21:26.434Z,99.90
2023-02-23T15:23:59.315Z,99.90
2023-02-23T15:26:31.850Z,99.90
2023-02-23T15:28:57.089Z,99.90
2023-02-23T15:31:22.197Z,99.90
2023-02-23T15:33:50.861Z,99.90
2023-02-23T15:36:25.884Z,99.90
2023-02-23T15:38:54.539Z,99.90
2023-02-23T15:41:23.427Z,99.90
2023-02-23T15:43:48.199Z,99.90
2023-02-23T15:46:24.367Z,99.90
2023-02-23T15:48:51.533Z,99.90
2023-02-23T15:51:26.357Z,99.90
2023-02-23T15:53:51.200Z,99.90
2023-02-23T15:56:23.965Z,99.90
2023-02-23T15:58:56.991Z,99.90
2023-02-23T16:01:25.718Z,99.90
2023-02-23T16:04:00.630Z,99.90
2023-02-23T16:06:27.133Z,99.90
2023-02-23T16:08:58.915Z,99.90
2023-02-23T16:11:25.434Z,99.90
2023-02-23T16:13:52.650Z,99.90
2023-02-23T16:16:20.623Z,99.90
2023-02-23T16:18:46.623Z,99.90
2023-02-23T16:21:19.014Z,99.90
2023-02-23T16:23:45.703Z,99.90
2023-02-23T16:26:12.979Z,99.90
2023-02-23T16:28:43.601Z,99.90
2023-02-23T16:31:13.885Z,99.90
2023-02-23T16:33:44.761Z,99.90
2023-02-23T16:36:21.301Z,99.90
2023-02-23T16:38:58.052Z,99.90
2023-02-23T16:41:23.590Z,99.90
2023-02-23T16:43:51.486Z,99.90
2023-02-23T16:46:16.271Z,99.90
2023-02-23T16:48:42.064Z,99.90
2023-02-23T16:51:14.398Z,99.90
2023-02-23T16:53:40.676Z,99.90
2023-02-23T16:56:12.493Z,99.90
2023-02-23T16:58:36.972Z,99.90
2023-02-23T17:01:02.924Z,99.90
2023-02-23T17:03:30.434Z,99.90
2023-02-23T17:05:55.257Z,99.90
2023-02-23T17:08:20.091Z,99.90
2023-02-23T17:10:47.411Z,99.90
2023-02-23T17:13:18.080Z,99.90
2023-02-23T17:15:51.921Z,99.90
2023-02-23T17:18:20.775Z,99.90
2023-02-23T17:20:45.824Z,99.90
2023-02-23T17:23:10.687Z,99.90
2023-02-23T17:25:36.213Z,99.90
2023-02-23T17:28:02.135Z,99.90
2023-02-23T17:30:27.980Z,99.90
2023-02-23T17:32:56.976Z,99.90
2023-02-23T17:35:23.485Z,99.90
2023-02-23T17:37:48.316Z,99.90
2023-02-23T17:40:15.872Z,99.90
2023-02-23T17:42:40.332Z,99.90
2023-02-23T17:45:06.890Z,99.90
2023-02-23T17:47:33.033Z,99.90
2023-02-23T17:49:57.565Z,99.90
2023-02-23T17:52:23.749Z,99.90
2023-02-23T17:54:48.306Z,99.90
2023-02-23T17:57:12.940Z,99.90
2023-02-23T17:59:37.438Z,99.90
2023-02-23T18:02:02.608Z,99.90
2023-02-23T18:04:27.080Z,99.90
2023-02-23T18:06:51.510Z,99.90
2023-02-23T18:09:17.270Z,99.90
2023-02-23T18:11:42.026Z,99.90
2023-02-23T18:14:06.426Z,99.90
2023-02-23T18:16:31.311Z,99.90
2023-02-23T18:18:58.054Z,99.90
2023-02-23T18:21:23.735Z,99.90
2023-02-23T18:23:48.721Z,99.90
2023-02-23T18:26:18.907Z,99.90
2023-02-23T18:28:44.680Z,99.90
2023-02-23T18:31:09.085Z,99.90
2023-02-23T18:33:35.925Z,99.90
2023-02-23T18:36:00.396Z,99.90
2023-02-23T18:38:25.920Z,99.90
2023-02-23T18:40:50.387Z,99.90
2023-02-23T18:43:16.195Z,99.90
2023-02-23T18:45:40.754Z,99.90
2023-02-23T18:48:10.088Z,99.90
2023-02-23T18:50:34.460Z,99.90
2023-02-23T18:53:05.089Z,99.90
2023-02-23T18:55:29.955Z,99.90
2023-02-23T18:57:56.722Z,99.90
2023-02-23T19:00:27.449Z,99.90
2023-02-23T19:02:51.967Z,99.90
2023-02-23T19:05:20.842Z,99.90
2023-02-23T19:07:46.103Z,99.90
2023-02-23T19:10:12.516Z,99.90
2023-02-23T19:12:37.219Z,99.90
2023-02-23T19:15:03.394Z,99.90
2023-02-23T19:17:31.694Z,99.90
2023-02-23T19:19:56.933Z,99.90
2023-02-23T19:22:23.012Z,99.90
2023-02-23T19:24:50.805Z,99.90
2023-02-23T19:27:17.010Z,99.90
2023-02-23T19:29:45.541Z,99.90
2023-02-23T19:32:10.233Z,99.90
2023-02-23T19:34:36.337Z,99.90
2023-02-23T19:37:02.052Z,99.90
2023-02-23T19:39:26.538Z,99.90
2023-02-23T19:41:51.545Z,99.90
2023-02-23T19:44:16.177Z,99.90
2023-02-23T19:46:42.972Z,99.90
2023-02-23T19:49:08.078Z,99.90
2023-02-23T19:51:35.725Z,99.90
2023-02-23T19:54:00.769Z,99.90
2023-02-23T19:56:27.917Z,99.90
2023-02-23T19:58:52.510Z,99.90
2023-02-23T20:01:19.493Z,99.90
2023-02-23T20:03:45.874Z,99.90
2023-02-23T20:06:12.928Z,99.90
2023-02-23T20:08:38.801Z,99.90
2023-02-23T20:11:07.177Z,99.90
2023-02-23T20:13:31.598Z,99.90
2023-02-23T20:16:02.754Z,99.90
2023-02-23T20:18:28.571Z,99.90
2023-02-23T20:20:54.161Z,99.90
2023-02-23T20:23:18.670Z,99.90
2023-02-23T20:25:44.399Z,99.90
2023-02-23T20:28:09.073Z,99.90
2023-02-23T20:30:33.541Z,99.90
2023-02-23T20:32:58.398Z,99.90
2023-02-23T20:35:26.373Z,99.90
2023-02-23T20:37:50.835Z,99.90
2023-02-23T20:40:18.552Z,99.90
2023-02-23T20:42:44.877Z,99.90
2023-02-23T20:45:10.316Z,99.90
2023-02-23T20:47:34.926Z,99.90
2023-02-23T20:49:59.296Z,99.90
2023-02-23T20:52:23.794Z,99.90
2023-02-23T20:54:48.135Z,99.90
2023-02-23T20:57:12.735Z,99.90
2023-02-23T20:59:38.572Z,99.90
2023-02-23T21:02:03.495Z,99.90
2023-02-23T21:04:28.644Z,99.90
2023-02-23T21:06:53.470Z,99.90
2023-02-23T21:09:18.430Z,99.90
2023-02-23T21:11:42.937Z,99.90
2023-02-23T21:14:08.496Z,99.90
2023-02-23T21:16:34.461Z,99.90
2023-02-23T21:19:05.020Z,99.90
2023-02-23T21:21:30.258Z,99.90
2023-02-23T21:23:55.252Z,99.90
2023-02-23T21:26:22.902Z,99.90
2023-02-23T21:28:48.442Z,99.90
2023-02-23T21:31:14.293Z,99.90
2023-02-23T21:33:41.565Z,99.90
2023-02-23T21:36:09.745Z,99.90
2023-02-23T21:38:35.651Z,99.90
2023-02-23T21:41:00.377Z,99.90
2023-02-23T21:43:26.075Z,99.90
2023-02-23T21:45:50.629Z,99.90
2023-02-23T21:48:15.364Z,99.90
2023-02-23T21:50:41.396Z,99.90
2023-02-23T21:53:05.968Z,99.90
2023-02-23T21:55:30.592Z,99.90
2023-02-23T21:57:55.233Z,99.90
2023-02-23T22:00:23.140Z,99.90
2023-02-23T22:02:48.731Z,99.90
2023-02-23T22:05:14.063Z,99.90
2023-02-23T22:07:39.888Z,99.90
2023-02-23T22:10:05.453Z,99.90
2023-02-23T22:12:32.502Z,99.90
2023-02-23T22:14:57.823Z,99.90
2023-02-23T22:17:22.359Z,99.90
2023-02-23T22:19:47.203Z,99.90
2023-02-23T22:22:11.832Z,99.90
2023-02-23T22:24:37.914Z,99.90
2023-02-23T22:27:04.125Z,99.90
2023-02-23T22:29:28.801Z,99.90
2023-02-23T22:31:55.178Z,99.90
2023-02-23T22:34:19.872Z,99.90
2023-02-23T22:36:44.955Z,99.90
2023-02-23T22:39:09.694Z,99.90
2023-02-23T22:41:42.369Z,99.90
2023-02-23T22:44:08.564Z,99.90
2023-02-23T22:46:33.089Z,99.90
2023-02-23T22:48:57.773Z,99.90
2023-02-23T22:51:22.582Z,99.90
2023-02-23T22:53:47.436Z,99.90
2023-02-23T22:56:12.157Z,99.90
2023-02-23T22:58:38.552Z,99.90
2023-02-23T23:01:06.328Z,99.90
2023-02-23T23:03:32.823Z,99.90
2023-02-23T23:06:02.501Z,99.90
2023-02-23T23:08:26.998Z,99.90
2023-02-23T23:10:51.431Z,99.90
2023-02-23T23:13:16.367Z,99.90
2023-02-23T23:15:43.377Z,99.90
2023-02-23T23:18:09.092Z,99.90
2023-02-23T23:20:33.583Z,99.90
2023-02-23T23:22:58.306Z,99.90
2023-02-23T23:25:23.843Z,99.90
2023-02-23T23:27:48.294Z,99.90
2023-02-23T23:30:15.464Z,99.90
2023-02-23T23:32:41.734Z,99.90
2023-02-23T23:35:11.126Z,99.90
2023-02-23T23:37:35.884Z,99.90
2023-02-23T23:40:00.480Z,99.90
2023-02-23T23:42:24.977Z,99.90
2023-02-23T23:44:49.562Z,99.90
2023-02-23T23:47:15.185Z,99.90
2023-02-23T23:49:42.379Z,99.90
2023-02-23T23:52:07.591Z,99.90
2023-02-23T23:54:34.796Z,99.90
2023-02-23T23:57:01.457Z,99.90
2023-02-23T23:59:27.518Z,99.90
